sensor_id;sensor_type;location;lat;lon;timestamp;temperature;humidity
11824;DHT22;5969;50.780;7.726;2022-07-19T00:00:01;15.90;99.90
11824;DHT22;5969;50.780;7.726;2022-07-19T00:02:29;15.90;99.90
11824;DHT22;5969;50.780;7.726;2022-07-19T00:04:56;15.80;99.90
11824;DHT22;5969;50.780;7.726;2022-07-19T00:07:23;15.80;99.90
11824;DHT22;5969;50.780;7.726;2022-07-19T00:09:51;15.80;99.90
11824;DHT22;5969;50.780;7.726;2022-07-19T00:12:17;15.70;99.90
11824;DHT22;5969;50.780;7.726;2022-07-19T00:14:44;15.70;99.90
11824;DHT22;5969;50.780;7.726;2022-07-19T00:17:11;15.60;99.90
11824;DHT22;5969;50.780;7.726;2022-07-19T00:19:38;15.60;99.90
11824;DHT22;5969;50.780;7.726;2022-07-19T00:22:05;15.50;99.90
11824;DHT22;5969;50.780;7.726;2022-07-19T00:24:32;15.40;99.90
11824;DHT22;5969;50.780;7.726;2022-07-19T00:27:00;15.30;99.90
11824;DHT22;5969;50.780;7.726;2022-07-19T00:29:27;15.10;99.90
11824;DHT22;5969;50.780;7.726;2022-07-19T00:31:53;15.10;99.90
11824;DHT22;5969;50.780;7.726;2022-07-19T00:34:20;15.10;99.90
11824;DHT22;5969;50.780;7.726;2022-07-19T00:36:47;15.10;99.90
11824;DHT22;5969;50.780;7.726;2022-07-19T00:39:14;15.10;99.90
11824;DHT22;5969;50.780;7.726;2022-07-19T00:41:40;15.10;99.90
11824;DHT22;5969;50.780;7.726;2022-07-19T00:44:09;15.10;99.90
11824;DHT22;5969;50.780;7.726;2022-07-19T00:46:37;15.10;99.90
11824;DHT22;5969;50.780;7.726;2022-07-19T00:49:04;15.10;99.90
11824;DHT22;5969;50.780;7.726;2022-07-19T00:51:34;15.00;99.90
11824;DHT22;5969;50.780;7.726;2022-07-19T00:54:02;14.90;99.90
11824;DHT22;5969;50.780;7.726;2022-07-19T00:56:31;14.90;99.90
11824;DHT22;5969;50.780;7.726;2022-07-19T00:58:59;14.90;99.90
11824;DHT22;5969;50.780;7.726;2022-07-19T01:01:27;14.80;99.90
11824;DHT22;5969;50.780;7.726;2022-07-19T01:03:55;14.60;99.90
11824;DHT22;5969;50.780;7.726;2022-07-19T01:06:22;14.50;99.90
11824;DHT22;5969;50.780;7.726;2022-07-19T01:08:49;14.50;99.90
11824;DHT22;5969;50.780;7.726;2022-07-19T01:11:15;14.40;99.90
11824;DHT22;5969;50.780;7.726;2022-07-19T01:13:42;14.30;99.90
11824;DHT22;5969;50.780;7.726;2022-07-19T01:16:09;14.20;99.90
11824;DHT22;5969;50.780;7.726;2022-07-19T01:18:37;14.20;99.90
11824;DHT22;5969;50.780;7.726;2022-07-19T01:21:04;14.10;99.90
11824;DHT22;5969;50.780;7.726;2022-07-19T01:23:32;14.10;99.90
11824;DHT22;5969;50.780;7.726;2022-07-19T01:25:59;14.10;99.90
11824;DHT22;5969;50.780;7.726;2022-07-19T01:28:26;14.10;99.90
11824;DHT22;5969;50.780;7.726;2022-07-19T01:30:52;14.10;99.90
11824;DHT22;5969;50.780;7.726;2022-07-19T01:33:19;14.00;99.90
11824;DHT22;5969;50.780;7.726;2022-07-19T01:35:46;13.90;99.90
11824;DHT22;5969;50.780;7.726;2022-07-19T01:38:13;13.80;99.90
11824;DHT22;5969;50.780;7.726;2022-07-19T01:40:41;13.70;99.90
11824;DHT22;5969;50.780;7.726;2022-07-19T01:43:08;13.70;99.90
11824;DHT22;5969;50.780;7.726;2022-07-19T01:45:35;13.70;99.90
11824;DHT22;5969;50.780;7.726;2022-07-19T01:48:01;13.70;99.90
11824;DHT22;5969;50.780;7.726;2022-07-19T01:50:28;13.70;99.90
11824;DHT22;5969;50.780;7.726;2022-07-19T01:52:55;13.60;99.90
11824;DHT22;5969;50.780;7.726;2022-07-19T01:55:22;13.60;99.90
11824;DHT22;5969;50.780;7.726;2022-07-19T01:57:50;13.50;99.90
11824;DHT22;5969;50.780;7.726;2022-07-19T02:00:17;13.60;99.90
11824;DHT22;5969;50.780;7.726;2022-07-19T02:02:44;13.50;99.90
11824;DHT22;5969;50.780;7.726;2022-07-19T02:05:11;13.40;99.90
11824;DHT22;5969;50.780;7.726;2022-07-19T02:07:38;13.30;99.90
11824;DHT22;5969;50.780;7.726;2022-07-19T02:10:06;13.40;99.90
11824;DHT22;5969;50.780;7.726;2022-07-19T02:12:33;13.30;99.90
11824;DHT22;5969;50.780;7.726;2022-07-19T02:15:01;13.30;99.90
11824;DHT22;5969;50.780;7.726;2022-07-19T02:17:28;13.20;99.90
11824;DHT22;5969;50.780;7.726;2022-07-19T02:19:55;13.30;99.90
11824;DHT22;5969;50.780;7.726;2022-07-19T02:22:22;13.10;99.90
11824;DHT22;5969;50.780;7.726;2022-07-19T02:24:49;13.10;99.90
11824;DHT22;5969;50.780;7.726;2022-07-19T02:27:16;13.10;99.90
11824;DHT22;5969;50.780;7.726;2022-07-19T02:29:42;13.10;99.90
11824;DHT22;5969;50.780;7.726;2022-07-19T02:32:10;13.10;99.90
11824;DHT22;5969;50.780;7.726;2022-07-19T02:34:37;13.10;99.90
11824;DHT22;5969;50.780;7.726;2022-07-19T02:37:04;13.10;99.90
11824;DHT22;5969;50.780;7.726;2022-07-19T02:39:31;13.10;99.90
11824;DHT22;5969;50.780;7.726;2022-07-19T02:41:57;13.00;99.90
11824;DHT22;5969;50.780;7.726;2022-07-19T02:44:24;12.90;99.90
11824;DHT22;5969;50.780;7.726;2022-07-19T02:46:51;12.90;99.90
11824;DHT22;5969;50.780;7.726;2022-07-19T02:49:19;12.90;99.90
11824;DHT22;5969;50.780;7.726;2022-07-19T02:51:47;12.80;99.90
11824;DHT22;5969;50.780;7.726;2022-07-19T02:54:14;12.80;99.90
11824;DHT22;5969;50.780;7.726;2022-07-19T02:56:40;12.70;99.90
11824;DHT22;5969;50.780;7.726;2022-07-19T02:59:07;12.70;99.90
11824;DHT22;5969;50.780;7.726;2022-07-19T03:01:34;12.70;99.90
11824;DHT22;5969;50.780;7.726;2022-07-19T03:04:00;12.70;99.90
11824;DHT22;5969;50.780;7.726;2022-07-19T03:06:28;12.70;99.90
11824;DHT22;5969;50.780;7.726;2022-07-19T03:08:55;12.70;99.90
11824;DHT22;5969;50.780;7.726;2022-07-19T03:11:22;12.60;99.90
11824;DHT22;5969;50.780;7.726;2022-07-19T03:13:49;12.60;99.90
11824;DHT22;5969;50.780;7.726;2022-07-19T03:16:16;12.60;99.90
11824;DHT22;5969;50.780;7.726;2022-07-19T03:18:42;12.50;99.90
11824;DHT22;5969;50.780;7.726;2022-07-19T03:21:09;12.50;99.90
11824;DHT22;5969;50.780;7.726;2022-07-19T03:23:37;12.50;99.90
11824;DHT22;5969;50.780;7.726;2022-07-19T03:26:05;12.50;99.90
11824;DHT22;5969;50.780;7.726;2022-07-19T03:28:32;12.40;99.90
11824;DHT22;5969;50.780;7.726;2022-07-19T03:30:59;12.40;99.90
11824;DHT22;5969;50.780;7.726;2022-07-19T03:33:26;12.40;99.90
11824;DHT22;5969;50.780;7.726;2022-07-19T03:35:53;12.40;99.90
11824;DHT22;5969;50.780;7.726;2022-07-19T03:38:19;12.40;99.90
11824;DHT22;5969;50.780;7.726;2022-07-19T03:40:48;12.40;99.90
11824;DHT22;5969;50.780;7.726;2022-07-19T03:43:15;12.40;99.90
11824;DHT22;5969;50.780;7.726;2022-07-19T03:45:42;12.40;99.90
11824;DHT22;5969;50.780;7.726;2022-07-19T03:48:09;12.30;99.90
11824;DHT22;5969;50.780;7.726;2022-07-19T03:50:36;12.30;99.90
11824;DHT22;5969;50.780;7.726;2022-07-19T03:53:04;12.30;99.90
11824;DHT22;5969;50.780;7.726;2022-07-19T03:55:30;12.40;99.90
11824;DHT22;5969;50.780;7.726;2022-07-19T03:57:59;12.30;99.90
11824;DHT22;5969;50.780;7.726;2022-07-19T04:00:26;12.30;99.90
11824;DHT22;5969;50.780;7.726;2022-07-19T04:02:53;12.20;99.90
11824;DHT22;5969;50.780;7.726;2022-07-19T04:05:19;12.20;99.90
11824;DHT22;5969;50.780;7.726;2022-07-19T04:07:46;12.30;99.90
11824;DHT22;5969;50.780;7.726;2022-07-19T04:10:13;12.20;99.90
11824;DHT22;5969;50.780;7.726;2022-07-19T04:12:40;12.20;99.90
11824;DHT22;5969;50.780;7.726;2022-07-19T04:15:09;12.20;99.90
11824;DHT22;5969;50.780;7.726;2022-07-19T04:17:36;12.30;99.90
11824;DHT22;5969;50.780;7.726;2022-07-19T04:20:03;12.30;99.90
11824;DHT22;5969;50.780;7.726;2022-07-19T04:22:31;12.30;99.90
11824;DHT22;5969;50.780;7.726;2022-07-19T04:24:58;12.30;99.90
11824;DHT22;5969;50.780;7.726;2022-07-19T04:27:26;12.50;99.90
11824;DHT22;5969;50.780;7.726;2022-07-19T04:29:53;12.40;99.90
11824;DHT22;5969;50.780;7.726;2022-07-19T04:32:21;12.50;99.90
11824;DHT22;5969;50.780;7.726;2022-07-19T04:34:48;12.60;99.90
11824;DHT22;5969;50.780;7.726;2022-07-19T04:37:15;12.70;99.90
11824;DHT22;5969;50.780;7.726;2022-07-19T04:39:42;12.80;99.90
11824;DHT22;5969;50.780;7.726;2022-07-19T04:42:08;12.80;99.90
11824;DHT22;5969;50.780;7.726;2022-07-19T04:44:35;12.90;99.90
11824;DHT22;5969;50.780;7.726;2022-07-19T04:47:02;13.00;99.90
11824;DHT22;5969;50.780;7.726;2022-07-19T04:49:30;13.00;99.90
11824;DHT22;5969;50.780;7.726;2022-07-19T04:51:57;13.10;99.90
11824;DHT22;5969;50.780;7.726;2022-07-19T04:54:24;13.20;99.90
11824;DHT22;5969;50.780;7.726;2022-07-19T04:56:50;13.10;99.90
11824;DHT22;5969;50.780;7.726;2022-07-19T04:59:17;13.20;99.90
11824;DHT22;5969;50.780;7.726;2022-07-19T05:01:44;13.30;99.90
11824;DHT22;5969;50.780;7.726;2022-07-19T05:04:11;13.50;99.90
11824;DHT22;5969;50.780;7.726;2022-07-19T05:06:39;13.50;99.90
11824;DHT22;5969;50.780;7.726;2022-07-19T05:09:08;13.60;99.90
11824;DHT22;5969;50.780;7.726;2022-07-19T05:11:35;13.70;99.90
11824;DHT22;5969;50.780;7.726;2022-07-19T05:14:02;13.80;99.90
11824;DHT22;5969;50.780;7.726;2022-07-19T05:16:29;13.90;99.90
11824;DHT22;5969;50.780;7.726;2022-07-19T05:18:56;14.00;99.90
11824;DHT22;5969;50.780;7.726;2022-07-19T05:21:23;14.20;99.90
11824;DHT22;5969;50.780;7.726;2022-07-19T05:23:51;14.30;99.90
11824;DHT22;5969;50.780;7.726;2022-07-19T05:26:18;14.50;99.90
11824;DHT22;5969;50.780;7.726;2022-07-19T05:28:44;14.60;99.90
11824;DHT22;5969;50.780;7.726;2022-07-19T05:31:11;14.70;99.90
11824;DHT22;5969;50.780;7.726;2022-07-19T05:33:38;14.80;99.90
11824;DHT22;5969;50.780;7.726;2022-07-19T05:36:05;14.90;99.90
11824;DHT22;5969;50.780;7.726;2022-07-19T05:38:34;15.10;99.90
11824;DHT22;5969;50.780;7.726;2022-07-19T05:41:04;15.20;99.90
11824;DHT22;5969;50.780;7.726;2022-07-19T05:43:31;15.30;99.90
11824;DHT22;5969;50.780;7.726;2022-07-19T05:45:57;15.50;99.90
11824;DHT22;5969;50.780;7.726;2022-07-19T05:48:24;15.60;99.90
11824;DHT22;5969;50.780;7.726;2022-07-19T05:50:51;15.80;99.90
11824;DHT22;5969;50.780;7.726;2022-07-19T05:53:18;16.00;99.90
11824;DHT22;5969;50.780;7.726;2022-07-19T05:55:44;16.10;99.90
11824;DHT22;5969;50.780;7.726;2022-07-19T05:58:12;16.20;99.90
11824;DHT22;5969;50.780;7.726;2022-07-19T06:00:39;16.40;99.90
11824;DHT22;5969;50.780;7.726;2022-07-19T06:03:27;16.50;99.90
11824;DHT22;5969;50.780;7.726;2022-07-19T06:05:53;16.70;99.90
11824;DHT22;5969;50.780;7.726;2022-07-19T06:08:20;16.90;99.90
11824;DHT22;5969;50.780;7.726;2022-07-19T06:10:47;17.10;99.90
11824;DHT22;5969;50.780;7.726;2022-07-19T06:13:15;17.40;99.90
11824;DHT22;5969;50.780;7.726;2022-07-19T06:15:42;17.50;99.90
11824;DHT22;5969;50.780;7.726;2022-07-19T06:18:09;17.60;99.90
11824;DHT22;5969;50.780;7.726;2022-07-19T06:20:35;17.80;99.90
11824;DHT22;5969;50.780;7.726;2022-07-19T06:23:02;17.80;99.90
11824;DHT22;5969;50.780;7.726;2022-07-19T06:25:29;17.80;99.90
11824;DHT22;5969;50.780;7.726;2022-07-19T06:27:56;18.10;99.90
11824;DHT22;5969;50.780;7.726;2022-07-19T06:30:24;18.10;99.90
11824;DHT22;5969;50.780;7.726;2022-07-19T06:32:51;18.20;99.90
11824;DHT22;5969;50.780;7.726;2022-07-19T06:35:18;18.40;99.90
11824;DHT22;5969;50.780;7.726;2022-07-19T06:37:44;18.50;99.90
11824;DHT22;5969;50.780;7.726;2022-07-19T06:40:11;18.70;99.90
11824;DHT22;5969;50.780;7.726;2022-07-19T06:42:38;18.80;99.90
11824;DHT22;5969;50.780;7.726;2022-07-19T06:45:06;19.00;99.90
11824;DHT22;5969;50.780;7.726;2022-07-19T06:47:34;19.10;99.90
11824;DHT22;5969;50.780;7.726;2022-07-19T06:50:00;19.40;99.90
11824;DHT22;5969;50.780;7.726;2022-07-19T06:52:27;19.60;99.90
11824;DHT22;5969;50.780;7.726;2022-07-19T06:54:54;19.80;99.90
11824;DHT22;5969;50.780;7.726;2022-07-19T06:57:21;20.10;99.90
11824;DHT22;5969;50.780;7.726;2022-07-19T06:59:47;20.30;99.90
11824;DHT22;5969;50.780;7.726;2022-07-19T07:02:14;20.70;99.90
11824;DHT22;5969;50.780;7.726;2022-07-19T07:04:42;20.90;99.90
11824;DHT22;5969;50.780;7.726;2022-07-19T07:07:09;21.00;99.90
11824;DHT22;5969;50.780;7.726;2022-07-19T07:09:36;21.20;99.90
11824;DHT22;5969;50.780;7.726;2022-07-19T07:12:03;21.40;99.90
11824;DHT22;5969;50.780;7.726;2022-07-19T07:14:29;21.60;99.90
11824;DHT22;5969;50.780;7.726;2022-07-19T07:16:56;21.80;99.90
11824;DHT22;5969;50.780;7.726;2022-07-19T07:19:23;21.90;99.90
11824;DHT22;5969;50.780;7.726;2022-07-19T07:21:51;22.10;99.90
11824;DHT22;5969;50.780;7.726;2022-07-19T07:24:18;22.40;99.90
11824;DHT22;5969;50.780;7.726;2022-07-19T07:26:45;22.50;99.90
11824;DHT22;5969;50.780;7.726;2022-07-19T07:29:11;22.70;99.90
11824;DHT22;5969;50.780;7.726;2022-07-19T07:31:38;22.90;99.90
11824;DHT22;5969;50.780;7.726;2022-07-19T07:34:05;23.20;99.90
11824;DHT22;5969;50.780;7.726;2022-07-19T07:36:32;23.30;99.90
11824;DHT22;5969;50.780;7.726;2022-07-19T07:39:00;23.50;99.90
11824;DHT22;5969;50.780;7.726;2022-07-19T07:41:27;23.60;99.90
11824;DHT22;5969;50.780;7.726;2022-07-19T07:43:54;23.70;99.90
11824;DHT22;5969;50.780;7.726;2022-07-19T07:46:21;23.90;99.90
11824;DHT22;5969;50.780;7.726;2022-07-19T07:48:47;24.10;99.90
11824;DHT22;5969;50.780;7.726;2022-07-19T07:51:14;24.30;99.90
11824;DHT22;5969;50.780;7.726;2022-07-19T07:53:41;24.50;99.90
11824;DHT22;5969;50.780;7.726;2022-07-19T07:56:09;24.80;99.90
11824;DHT22;5969;50.780;7.726;2022-07-19T07:58:36;25.10;99.90
11824;DHT22;5969;50.780;7.726;2022-07-19T08:01:03;25.30;99.90
11824;DHT22;5969;50.780;7.726;2022-07-19T08:03:30;25.50;99.90
11824;DHT22;5969;50.780;7.726;2022-07-19T08:05:56;25.70;99.90
11824;DHT22;5969;50.780;7.726;2022-07-19T08:08:23;25.70;99.90
11824;DHT22;5969;50.780;7.726;2022-07-19T08:10:52;25.90;99.90
11824;DHT22;5969;50.780;7.726;2022-07-19T08:13:20;26.20;99.90
11824;DHT22;5969;50.780;7.726;2022-07-19T08:15:47;26.50;99.90
11824;DHT22;5969;50.780;7.726;2022-07-19T08:18:14;26.60;99.90
11824;DHT22;5969;50.780;7.726;2022-07-19T08:20:41;26.80;99.90
11824;DHT22;5969;50.780;7.726;2022-07-19T08:23:08;27.00;99.30
11824;DHT22;5969;50.780;7.726;2022-07-19T08:25:35;27.20;99.40
11824;DHT22;5969;50.780;7.726;2022-07-19T08:28:02;27.40;98.50
11824;DHT22;5969;50.780;7.726;2022-07-19T08:30:31;27.60;98.00
11824;DHT22;5969;50.780;7.726;2022-07-19T08:32:58;27.70;97.40
11824;DHT22;5969;50.780;7.726;2022-07-19T08:35:26;27.90;97.40
11824;DHT22;5969;50.780;7.726;2022-07-19T08:37:53;28.00;97.50
11824;DHT22;5969;50.780;7.726;2022-07-19T08:40:20;28.30;97.50
11824;DHT22;5969;50.780;7.726;2022-07-19T08:42:47;28.60;97.50
11824;DHT22;5969;50.780;7.726;2022-07-19T08:45:14;28.70;96.90
11824;DHT22;5969;50.780;7.726;2022-07-19T08:47:43;28.90;96.30
11824;DHT22;5969;50.780;7.726;2022-07-19T08:50:10;29.00;95.60
11824;DHT22;5969;50.780;7.726;2022-07-19T08:52:37;29.10;96.10
11824;DHT22;5969;50.780;7.726;2022-07-19T08:55:05;29.20;95.40
11824;DHT22;5969;50.780;7.726;2022-07-19T08:57:32;29.40;95.00
11824;DHT22;5969;50.780;7.726;2022-07-19T09:00:16;29.50;94.40
11824;DHT22;5969;50.780;7.726;2022-07-19T09:02:52;29.80;93.60
11824;DHT22;5969;50.780;7.726;2022-07-19T09:05:20;30.10;93.10
11824;DHT22;5969;50.780;7.726;2022-07-19T09:08:00;30.30;92.90
11824;DHT22;5969;50.780;7.726;2022-07-19T09:10:27;30.40;92.70
11824;DHT22;5969;50.780;7.726;2022-07-19T09:12:58;30.40;91.30
11824;DHT22;5969;50.780;7.726;2022-07-19T09:15:45;30.60;92.30
11824;DHT22;5969;50.780;7.726;2022-07-19T09:18:16;30.90;90.90
11824;DHT22;5969;50.780;7.726;2022-07-19T09:20:45;31.00;90.60
11824;DHT22;5969;50.780;7.726;2022-07-19T09:23:12;31.20;90.50
11824;DHT22;5969;50.780;7.726;2022-07-19T09:25:40;31.50;91.10
11824;DHT22;5969;50.780;7.726;2022-07-19T09:28:08;31.70;87.10
11824;DHT22;5969;50.780;7.726;2022-07-19T09:30:38;31.60;84.80
11824;DHT22;5969;50.780;7.726;2022-07-19T09:33:10;31.70;82.00
11824;DHT22;5969;50.780;7.726;2022-07-19T09:35:41;31.80;80.40
11824;DHT22;5969;50.780;7.726;2022-07-19T09:38:20;32.10;80.80
11824;DHT22;5969;50.780;7.726;2022-07-19T09:40:47;32.30;78.70
11824;DHT22;5969;50.780;7.726;2022-07-19T09:43:15;32.40;77.70
11824;DHT22;5969;50.780;7.726;2022-07-19T09:45:42;32.50;78.70
11824;DHT22;5969;50.780;7.726;2022-07-19T09:48:09;32.30;77.20
11824;DHT22;5969;50.780;7.726;2022-07-19T09:50:36;32.50;76.30
11824;DHT22;5969;50.780;7.726;2022-07-19T09:53:06;32.60;75.20
11824;DHT22;5969;50.780;7.726;2022-07-19T09:55:33;32.70;74.20
11824;DHT22;5969;50.780;7.726;2022-07-19T09:58:00;32.80;74.80
11824;DHT22;5969;50.780;7.726;2022-07-19T10:00:29;32.90;72.40
11824;DHT22;5969;50.780;7.726;2022-07-19T10:02:58;32.90;72.10
11824;DHT22;5969;50.780;7.726;2022-07-19T10:05:26;33.10;70.70
11824;DHT22;5969;50.780;7.726;2022-07-19T10:07:54;33.10;70.00
11824;DHT22;5969;50.780;7.726;2022-07-19T10:10:23;33.20;70.40
11824;DHT22;5969;50.780;7.726;2022-07-19T10:12:55;33.30;70.60
11824;DHT22;5969;50.780;7.726;2022-07-19T10:15:23;33.40;71.10
11824;DHT22;5969;50.780;7.726;2022-07-19T10:18:09;33.40;70.00
11824;DHT22;5969;50.780;7.726;2022-07-19T10:20:38;33.50;70.70
11824;DHT22;5969;50.780;7.726;2022-07-19T10:23:05;33.60;70.80
11824;DHT22;5969;50.780;7.726;2022-07-19T10:25:43;33.70;70.40
11824;DHT22;5969;50.780;7.726;2022-07-19T10:28:33;33.70;69.20
11824;DHT22;5969;50.780;7.726;2022-07-19T10:31:01;33.60;70.30
11824;DHT22;5969;50.780;7.726;2022-07-19T10:33:34;33.60;69.50
11824;DHT22;5969;50.780;7.726;2022-07-19T10:36:30;33.70;69.60
11824;DHT22;5969;50.780;7.726;2022-07-19T10:39:20;33.80;69.40
11824;DHT22;5969;50.780;7.726;2022-07-19T10:42:08;33.80;69.00
11824;DHT22;5969;50.780;7.726;2022-07-19T10:45:08;33.90;68.60
11824;DHT22;5969;50.780;7.726;2022-07-19T10:50:58;33.80;67.30
11824;DHT22;5969;50.780;7.726;2022-07-19T10:56:33;33.70;67.30
11824;DHT22;5969;50.780;7.726;2022-07-19T10:59:04;33.90;68.60
11824;DHT22;5969;50.780;7.726;2022-07-19T11:01:34;33.90;67.40
11824;DHT22;5969;50.780;7.726;2022-07-19T11:04:23;33.80;67.40
11824;DHT22;5969;50.780;7.726;2022-07-19T11:06:50;33.60;65.90
11824;DHT22;5969;50.780;7.726;2022-07-19T11:09:18;33.70;66.20
11824;DHT22;5969;50.780;7.726;2022-07-19T11:11:44;33.80;66.20
11824;DHT22;5969;50.780;7.726;2022-07-19T11:14:12;33.90;66.90
11824;DHT22;5969;50.780;7.726;2022-07-19T11:16:39;34.10;67.70
11824;DHT22;5969;50.780;7.726;2022-07-19T11:19:09;34.20;66.00
11824;DHT22;5969;50.780;7.726;2022-07-19T11:21:36;34.10;64.80
11824;DHT22;5969;50.780;7.726;2022-07-19T11:24:04;34.10;65.90
11824;DHT22;5969;50.780;7.726;2022-07-19T11:26:35;34.00;65.30
11824;DHT22;5969;50.780;7.726;2022-07-19T11:29:03;34.20;67.40
11824;DHT22;5969;50.780;7.726;2022-07-19T11:31:31;34.30;67.00
11824;DHT22;5969;50.780;7.726;2022-07-19T11:33:59;34.20;66.50
11824;DHT22;5969;50.780;7.726;2022-07-19T11:36:27;34.40;68.40
11824;DHT22;5969;50.780;7.726;2022-07-19T11:38:56;34.50;66.80
11824;DHT22;5969;50.780;7.726;2022-07-19T11:41:26;34.70;67.20
11824;DHT22;5969;50.780;7.726;2022-07-19T11:43:53;34.70;67.10
11824;DHT22;5969;50.780;7.726;2022-07-19T11:46:21;34.70;66.30
11824;DHT22;5969;50.780;7.726;2022-07-19T11:48:54;34.60;66.30
11824;DHT22;5969;50.780;7.726;2022-07-19T11:51:21;34.60;67.00
11824;DHT22;5969;50.780;7.726;2022-07-19T11:53:49;34.80;67.30
11824;DHT22;5969;50.780;7.726;2022-07-19T11:56:20;34.70;64.60
11824;DHT22;5969;50.780;7.726;2022-07-19T11:58:47;34.50;66.30
11824;DHT22;5969;50.780;7.726;2022-07-19T12:01:22;34.60;67.10
11824;DHT22;5969;50.780;7.726;2022-07-19T12:03:54;34.70;67.20
11824;DHT22;5969;50.780;7.726;2022-07-19T12:06:34;34.60;65.60
11824;DHT22;5969;50.780;7.726;2022-07-19T12:09:04;34.60;68.00
11824;DHT22;5969;50.780;7.726;2022-07-19T12:11:38;34.70;66.30
11824;DHT22;5969;50.780;7.726;2022-07-19T12:14:17;34.70;67.30
11824;DHT22;5969;50.780;7.726;2022-07-19T12:16:45;35.00;66.60
11824;DHT22;5969;50.780;7.726;2022-07-19T12:19:14;34.80;67.20
11824;DHT22;5969;50.780;7.726;2022-07-19T12:21:44;35.00;67.10
11824;DHT22;5969;50.780;7.726;2022-07-19T12:24:22;35.20;66.50
11824;DHT22;5969;50.780;7.726;2022-07-19T12:26:58;35.30;65.50
11824;DHT22;5969;50.780;7.726;2022-07-19T12:29:33;35.30;66.30
11824;DHT22;5969;50.780;7.726;2022-07-19T12:32:05;35.40;65.40
11824;DHT22;5969;50.780;7.726;2022-07-19T12:34:47;35.40;67.70
11824;DHT22;5969;50.780;7.726;2022-07-19T12:37:21;35.60;68.20
11824;DHT22;5969;50.780;7.726;2022-07-19T12:40:07;35.20;66.60
11824;DHT22;5969;50.780;7.726;2022-07-19T12:42:41;34.90;66.00
11824;DHT22;5969;50.780;7.726;2022-07-19T12:45:09;34.90;68.30
11824;DHT22;5969;50.780;7.726;2022-07-19T12:47:36;35.30;67.80
11824;DHT22;5969;50.780;7.726;2022-07-19T12:50:05;35.60;68.20
11824;DHT22;5969;50.780;7.726;2022-07-19T12:52:33;35.80;68.30
11824;DHT22;5969;50.780;7.726;2022-07-19T12:55:01;35.80;65.30
11824;DHT22;5969;50.780;7.726;2022-07-19T12:57:28;35.60;64.90
11824;DHT22;5969;50.780;7.726;2022-07-19T12:59:55;35.60;65.60
11824;DHT22;5969;50.780;7.726;2022-07-19T13:02:22;35.70;66.70
11824;DHT22;5969;50.780;7.726;2022-07-19T13:04:49;35.90;66.10
11824;DHT22;5969;50.780;7.726;2022-07-19T13:07:17;35.90;65.40
11824;DHT22;5969;50.780;7.726;2022-07-19T13:09:44;35.80;67.10
11824;DHT22;5969;50.780;7.726;2022-07-19T13:12:10;35.90;65.10
11824;DHT22;5969;50.780;7.726;2022-07-19T13:14:38;36.00;66.00
11824;DHT22;5969;50.780;7.726;2022-07-19T13:17:06;36.30;66.90
11824;DHT22;5969;50.780;7.726;2022-07-19T13:19:36;36.40;64.60
11824;DHT22;5969;50.780;7.726;2022-07-19T13:22:04;36.50;64.40
11824;DHT22;5969;50.780;7.726;2022-07-19T13:24:32;36.80;64.10
11824;DHT22;5969;50.780;7.726;2022-07-19T13:26:59;36.80;63.60
11824;DHT22;5969;50.780;7.726;2022-07-19T13:29:26;37.10;65.10
11824;DHT22;5969;50.780;7.726;2022-07-19T13:31:53;37.30;64.80
11824;DHT22;5969;50.780;7.726;2022-07-19T13:34:20;37.70;61.00
11824;DHT22;5969;50.780;7.726;2022-07-19T13:36:48;38.50;62.40
11824;DHT22;5969;50.780;7.726;2022-07-19T13:39:15;38.60;60.60
11824;DHT22;5969;50.780;7.726;2022-07-19T13:41:43;39.10;63.10
11824;DHT22;5969;50.780;7.726;2022-07-19T13:44:10;39.70;62.20
11824;DHT22;5969;50.780;7.726;2022-07-19T13:46:36;40.50;60.90
11824;DHT22;5969;50.780;7.726;2022-07-19T13:49:03;41.30;59.30
11824;DHT22;5969;50.780;7.726;2022-07-19T13:51:31;41.50;58.20
11824;DHT22;5969;50.780;7.726;2022-07-19T13:53:58;41.60;58.80
11824;DHT22;5969;50.780;7.726;2022-07-19T13:56:25;41.40;58.20
11824;DHT22;5969;50.780;7.726;2022-07-19T13:58:53;42.50;59.40
11824;DHT22;5969;50.780;7.726;2022-07-19T14:01:20;43.00;57.00
11824;DHT22;5969;50.780;7.726;2022-07-19T14:03:47;43.40;55.00
11824;DHT22;5969;50.780;7.726;2022-07-19T14:06:14;43.20;55.30
11824;DHT22;5969;50.780;7.726;2022-07-19T14:08:41;43.30;54.10
11824;DHT22;5969;50.780;7.726;2022-07-19T14:11:08;42.60;53.60
11824;DHT22;5969;50.780;7.726;2022-07-19T14:13:36;42.50;54.20
11824;DHT22;5969;50.780;7.726;2022-07-19T14:16:05;43.30;52.30
11824;DHT22;5969;50.780;7.726;2022-07-19T14:18:32;43.60;50.70
11824;DHT22;5969;50.780;7.726;2022-07-19T14:20:59;43.40;51.20
11824;DHT22;5969;50.780;7.726;2022-07-19T14:23:26;43.50;50.50
11824;DHT22;5969;50.780;7.726;2022-07-19T14:25:53;43.50;51.20
11824;DHT22;5969;50.780;7.726;2022-07-19T14:28:19;43.40;50.80
11824;DHT22;5969;50.780;7.726;2022-07-19T14:30:46;42.20;52.00
11824;DHT22;5969;50.780;7.726;2022-07-19T14:33:14;43.10;50.60
11824;DHT22;5969;50.780;7.726;2022-07-19T14:35:41;43.10;50.60
11824;DHT22;5969;50.780;7.726;2022-07-19T14:38:08;44.00;51.70
11824;DHT22;5969;50.780;7.726;2022-07-19T14:40:35;44.30;49.60
11824;DHT22;5969;50.780;7.726;2022-07-19T14:43:02;44.40;48.70
11824;DHT22;5969;50.780;7.726;2022-07-19T14:45:29;45.10;49.50
11824;DHT22;5969;50.780;7.726;2022-07-19T14:47:56;44.80;48.40
11824;DHT22;5969;50.780;7.726;2022-07-19T14:50:24;42.90;49.80
11824;DHT22;5969;50.780;7.726;2022-07-19T14:52:51;42.80;48.80
11824;DHT22;5969;50.780;7.726;2022-07-19T14:55:18;41.30;48.00
11824;DHT22;5969;50.780;7.726;2022-07-19T14:57:45;41.20;49.30
11824;DHT22;5969;50.780;7.726;2022-07-19T15:00:12;41.60;49.70
11824;DHT22;5969;50.780;7.726;2022-07-19T15:02:39;43.30;49.80
11824;DHT22;5969;50.780;7.726;2022-07-19T15:05:07;45.10;48.80
11824;DHT22;5969;50.780;7.726;2022-07-19T15:07:35;45.30;46.50
11824;DHT22;5969;50.780;7.726;2022-07-19T15:10:03;44.40;48.40
11824;DHT22;5969;50.780;7.726;2022-07-19T15:12:30;43.50;49.70
11824;DHT22;5969;50.780;7.726;2022-07-19T15:14:57;43.60;50.00
11824;DHT22;5969;50.780;7.726;2022-07-19T15:17:23;45.10;48.30
11824;DHT22;5969;50.780;7.726;2022-07-19T15:19:50;44.70;49.30
11824;DHT22;5969;50.780;7.726;2022-07-19T15:22:19;44.50;49.50
11824;DHT22;5969;50.780;7.726;2022-07-19T15:24:47;45.10;49.10
11824;DHT22;5969;50.780;7.726;2022-07-19T15:27:14;43.70;49.30
11824;DHT22;5969;50.780;7.726;2022-07-19T15:29:41;43.30;50.30
11824;DHT22;5969;50.780;7.726;2022-07-19T15:32:09;43.10;50.20
11824;DHT22;5969;50.780;7.726;2022-07-19T15:34:37;42.00;50.20
11824;DHT22;5969;50.780;7.726;2022-07-19T15:37:04;42.00;52.30
11824;DHT22;5969;50.780;7.726;2022-07-19T15:39:31;42.20;51.90
11824;DHT22;5969;50.780;7.726;2022-07-19T15:41:59;41.90;51.50
11824;DHT22;5969;50.780;7.726;2022-07-19T15:44:26;42.20;51.10
11824;DHT22;5969;50.780;7.726;2022-07-19T15:46:53;42.60;50.20
11824;DHT22;5969;50.780;7.726;2022-07-19T15:49:19;43.20;50.90
11824;DHT22;5969;50.780;7.726;2022-07-19T15:51:46;42.70;50.20
11824;DHT22;5969;50.780;7.726;2022-07-19T15:54:13;42.60;50.40
11824;DHT22;5969;50.780;7.726;2022-07-19T15:56:40;43.70;50.40